Time;durP1;ratioP1;P1;durP2;ratioP2;P2;SDS_P1;SDS_P2;PMS_P1;PMS_P2;Temp;Humidity;BMP_temperature;BMP_pressure;BME280_temperature;BME280_humidity;BME280_pressure;Samples;Min_cycle;Max_cycle;Signal;HPM_P1;HPM_P2
2022/08/24 00:01:10;;;;;;;5.63;4.22;;;14.10;99.90;;;;;;5047836;28;20056;-83
2022/08/24 00:03:37;;;;;;;8.00;4.57;;;14.00;99.90;;;;;;5036418;28;20030;-83
2022/08/24 00:06:04;;;;;;;5.47;4.10;;;14.00;99.90;;;;;;5055914;28;20021;-83
2022/08/24 00:08:30;;;;;;;7.05;4.30;;;13.90;99.90;;;;;;5042583;28;20482;-83
2022/08/24 00:10:58;;;;;;;6.57;4.30;;;13.90;99.90;;;;;;5032884;28;20030;-83
2022/08/24 00:13:24;;;;;;;8.02;4.45;;;13.90;99.90;;;;;;5024361;28;20026;-83
2022/08/24 00:15:50;;;;;;;6.55;4.28;;;13.80;99.90;;;;;;5024526;28;20021;-83
2022/08/24 00:18:16;;;;;;;11.80;4.68;;;13.80;99.90;;;;;;5035584;28;20481;-83
2022/08/24 00:20:42;;;;;;;5.43;4.38;;;13.70;99.90;;;;;;5042139;28;20021;-83
2022/08/24 00:23:08;;;;;;;7.47;4.88;;;13.60;99.90;;;;;;5055619;28;20083;-83
2022/08/24 00:25:34;;;;;;;7.90;4.65;;;13.60;99.90;;;;;;5055371;28;20025;-83
2022/08/24 00:28:00;;;;;;;5.40;4.35;;;13.50;99.90;;;;;;5055366;28;20021;-83
2022/08/24 00:30:26;;;;;;;5.47;4.40;;;13.50;99.90;;;;;;5055279;28;20025;-83
2022/08/24 00:32:53;;;;;;;7.10;4.50;;;13.40;99.90;;;;;;5055296;28;20087;-83
2022/08/24 00:35:21;;;;;;;9.43;4.55;;;13.40;99.90;;;;;;5055648;28;20021;-83
2022/08/24 00:37:49;;;;;;;9.93;4.18;;;13.40;99.90;;;;;;5047916;28;20036;-83
2022/08/24 00:40:28;;;;;;;8.88;4.90;;;13.30;99.90;;;;;;5035228;28;20018;-83
2022/08/24 00:42:54;;;;;;;7.38;4.43;;;13.30;99.90;;;;;;5022039;28;20032;-82
2022/08/24 00:45:21;;;;;;;6.10;4.18;;;13.30;99.90;;;;;;5048878;28;20049;-83
2022/08/24 00:47:48;;;;;;;6.85;4.35;;;13.20;99.90;;;;;;5031499;28;20083;-83
2022/08/24 00:50:22;;;;;;;6.38;4.43;;;13.20;99.90;;;;;;5035097;28;20029;-83
2022/08/24 00:52:59;;;;;;;8.00;4.18;;;13.20;99.90;;;;;;5035023;28;20513;-83
2022/08/24 00:55:46;;;;;;;8.02;4.20;;;13.20;99.90;;;;;;5047344;28;20025;-82
2022/08/24 00:58:17;;;;;;;7.32;4.53;;;13.10;99.90;;;;;;5042824;28;20029;-83
2022/08/24 01:00:52;;;;;;;6.90;4.13;;;13.10;99.90;;;;;;5055176;28;20048;-83
2022/08/24 01:03:18;;;;;;;5.78;4.53;;;13.00;99.90;;;;;;5047383;28;20052;-83
2022/08/24 01:05:44;;;;;;;6.78;4.82;;;13.00;99.90;;;;;;5048095;28;20025;-83
2022/08/24 01:08:11;;;;;;;5.47;3.97;;;13.00;99.90;;;;;;5049164;28;20029;-83
2022/08/24 01:10:48;;;;;;;7.45;4.70;;;13.00;99.90;;;;;;5046489;28;20036;-83
2022/08/24 01:13:14;;;;;;;6.95;4.88;;;13.00;99.90;;;;;;5035145;28;20057;-83
2022/08/24 01:15:47;;;;;;;8.02;4.65;;;13.00;99.90;;;;;;5046710;28;20056;-83
2022/08/24 01:21:10;;;;;;;6.80;4.68;;;13.00;99.90;;;;;;5044899;28;20032;-83
2022/08/24 01:23:39;;;;;;;;;;;12.90;99.90;;;;;;5051334;28;20044;-83
2022/08/24 01:26:12;;;;;;;6.05;4.70;;;12.80;99.90;;;;;;5045048;28;19912;-83
2022/08/24 01:28:39;;;;;;;5.93;4.85;;;12.80;99.90;;;;;;5034463;28;20079;-82
2022/08/24 01:31:05;;;;;;;7.40;4.95;;;12.80;99.90;;;;;;5042519;28;20017;-83
2022/08/24 01:33:31;;;;;;;8.73;4.38;;;12.80;99.90;;;;;;5053799;28;20112;-83
2022/08/24 01:36:03;;;;;;;7.68;5.00;;;12.70;99.90;;;;;;5040677;28;20106;-83
2022/08/24 01:38:30;;;;;;;5.75;4.60;;;12.70;99.90;;;;;;5041004;28;20483;-83
2022/08/24 01:41:00;;;;;;;7.43;4.80;;;12.70;99.90;;;;;;5047806;28;20084;-83
2022/08/24 01:43:26;;;;;;;9.23;5.22;;;12.70;99.90;;;;;;5034189;28;20036;-83
2022/08/24 01:45:52;;;;;;;8.10;5.63;;;12.70;99.90;;;;;;5037736;28;20103;-83
2022/08/24 01:48:19;;;;;;;7.70;4.70;;;12.70;99.90;;;;;;5053769;28;20025;-83
2022/08/24 01:50:45;;;;;;;6.78;4.70;;;12.70;99.90;;;;;;5021866;28;20029;-83
2022/08/24 01:53:10;;;;;;;6.20;5.20;;;12.70;99.90;;;;;;5045568;28;20025;-83
2022/08/24 01:55:36;;;;;;;6.07;4.95;;;12.70;99.90;;;;;;5053187;28;20445;-83
2022/08/24 01:58:03;;;;;;;8.05;5.43;;;12.70;99.90;;;;;;5039983;28;20040;-83
2022/08/24 02:00:29;;;;;;;6.70;5.57;;;12.60;99.90;;;;;;5053709;28;20025;-83
2022/08/24 02:02:55;;;;;;;4.65;4.25;;;12.50;99.90;;;;;;5035483;28;20030;-83
2022/08/24 02:05:23;;;;;;;6.35;4.85;;;12.40;99.90;;;;;;5025995;28;20370;-83
2022/08/24 02:07:50;;;;;;;6.60;4.78;;;12.30;99.90;;;;;;5041657;28;20018;-83
2022/08/24 02:10:16;;;;;;;6.97;4.70;;;12.30;99.90;;;;;;5032930;28;20037;-83
2022/08/24 02:12:44;;;;;;;6.95;4.57;;;12.30;99.90;;;;;;5032820;28;20021;-83
2022/08/24 02:15:10;;;;;;;7.63;4.95;;;12.20;99.90;;;;;;5033091;28;20033;-82
2022/08/24 02:17:36;;;;;;;6.53;4.82;;;12.30;99.90;;;;;;5046081;28;20435;-82
2022/08/24 02:20:04;;;;;;;6.55;4.80;;;12.30;99.90;;;;;;5032029;28;20030;-82
2022/08/24 02:22:30;;;;;;;8.05;4.65;;;12.30;99.90;;;;;;5032066;28;20025;-82
2022/08/24 02:24:56;;;;;;;8.82;5.82;;;12.20;99.90;;;;;;5032132;28;20147;-82
2022/08/24 02:27:22;;;;;;;9.68;5.05;;;12.20;99.90;;;;;;5032493;28;20466;-82
2022/08/24 02:29:47;;;;;;;10.10;5.15;;;12.20;99.90;;;;;;5028444;28;20040;-82
2022/08/24 02:32:13;;;;;;;5.45;4.95;;;12.10;99.90;;;;;;5014244;28;20029;-82
2022/08/24 02:34:39;;;;;;;5.65;4.22;;;12.10;99.90;;;;;;5031975;28;20029;-83
2022/08/24 02:37:05;;;;;;;8.85;5.40;;;12.00;99.90;;;;;;5032071;28;20040;-82
2022/08/24 02:39:31;;;;;;;7.95;5.00;;;12.00;99.90;;;;;;5030474;28;20478;-83
2022/08/24 02:41:56;;;;;;;8.23;5.65;;;12.00;99.90;;;;;;5032256;28;20028;-83
2022/08/24 02:44:22;;;;;;;10.10;4.85;;;11.90;99.90;;;;;;5032139;28;20022;-83
2022/08/24 02:46:48;;;;;;;10.30;5.55;;;11.90;99.90;;;;;;5032080;28;20060;-83
2022/08/24 02:49:13;;;;;;;9.02;5.38;;;11.90;99.90;;;;;;5032678;28;20037;-83
2022/08/24 02:51:42;;;;;;;9.45;5.25;;;11.90;99.90;;;;;;5046856;28;20075;-83
2022/08/24 02:54:08;;;;;;;8.10;5.70;;;11.80;99.90;;;;;;5032713;28;20084;-82
2022/08/24 02:56:34;;;;;;;7.95;5.18;;;11.80;99.90;;;;;;5032329;28;20038;-83
2022/08/24 02:59:00;;;;;;;7.28;5.88;;;11.80;99.90;;;;;;5032445;28;20548;-83
2022/08/24 03:01:28;;;;;;;7.55;6.00;;;11.80;99.90;;;;;;5032702;28;20026;-83
2022/08/24 03:03:55;;;;;;;8.57;5.78;;;11.70;99.90;;;;;;5032115;28;20018;-83
2022/08/24 03:06:21;;;;;;;8.70;5.50;;;11.80;99.90;;;;;;5032253;28;20024;-83
2022/08/24 03:08:46;;;;;;;6.70;5.60;;;11.80;99.90;;;;;;5036494;28;20025;-83
2022/08/24 03:11:12;;;;;;;7.35;5.45;;;11.80;99.90;;;;;;5013604;28;20073;-83
2022/08/24 03:13:40;;;;;;;6.35;5.00;;;11.80;99.90;;;;;;5028380;28;20033;-83
2022/08/24 03:16:06;;;;;;;6.47;5.05;;;11.80;99.90;;;;;;5032410;28;20071;-83
2022/08/24 03:18:32;;;;;;;6.82;5.00;;;11.70;99.90;;;;;;5032411;28;20042;-83
2022/08/24 03:20:59;;;;;;;10.65;5.47;;;11.80;99.90;;;;;;5032311;28;20041;-83
2022/08/24 03:23:26;;;;;;;9.38;5.15;;;11.80;99.90;;;;;;5032688;28;20045;-83
2022/08/24 03:25:53;;;;;;;6.03;5.13;;;11.70;99.90;;;;;;5036311;28;20425;-82
2022/08/24 03:28:20;;;;;;;8.60;5.18;;;11.70;99.90;;;;;;5035067;28;20025;-83
2022/08/24 03:30:46;;;;;;;8.40;4.65;;;11.70;99.90;;;;;;5032449;28;20033;-83
2022/08/24 03:33:12;;;;;;;9.77;4.90;;;11.60;99.90;;;;;;5032788;28;20029;-83
2022/08/24 03:35:37;;;;;;;8.70;6.10;;;11.60;99.90;;;;;;5032508;28;20382;-83
2022/08/24 03:38:03;;;;;;;7.63;4.70;;;11.50;99.90;;;;;;5032512;28;20093;-83
2022/08/24 03:40:32;;;;;;;12.48;5.10;;;11.50;99.90;;;;;;5032622;28;20022;-83
2022/08/24 03:42:58;;;;;;;7.30;5.30;;;11.50;99.90;;;;;;5032168;28;20021;-83
2022/08/24 03:45:24;;;;;;;10.15;5.10;;;11.50;99.90;;;;;;5036821;28;20026;-82
2022/08/24 03:47:50;;;;;;;6.15;5.55;;;11.50;99.90;;;;;;5024142;28;20050;-82
2022/08/24 03:50:17;;;;;;;7.47;5.05;;;11.50;99.90;;;;;;5036789;28;20513;-83
2022/08/24 03:52:43;;;;;;;7.82;5.40;;;11.40;99.90;;;;;;5032806;28;20037;-83
2022/08/24 03:55:10;;;;;;;7.00;4.95;;;11.40;99.90;;;;;;5040806;28;20025;-83
2022/08/24 03:57:35;;;;;;;8.25;5.60;;;11.40;99.90;;;;;;5032377;28;20431;-83
2022/08/24 04:00:04;;;;;;;5.70;4.93;;;11.40;99.90;;;;;;5037037;28;20096;-83
2022/08/24 04:02:30;;;;;;;7.28;5.50;;;11.40;99.90;;;;;;5008832;28;20014;-83
2022/08/24 04:04:55;;;;;;;9.25;5.75;;;11.40;99.90;;;;;;5032206;28;20103;-82
2022/08/24 04:07:22;;;;;;;10.52;5.07;;;11.40;99.90;;;;;;5032261;28;20849;-83
2022/08/24 04:09:47;;;;;;;7.50;5.35;;;11.40;99.90;;;;;;5032133;28;20461;-83
2022/08/24 04:12:13;;;;;;;6.03;5.07;;;11.40;99.90;;;;;;5032106;28;20052;-83
2022/08/24 04:14:39;;;;;;;6.05;4.88;;;11.40;99.90;;;;;;5031908;28;20032;-83
2022/08/24 04:17:04;;;;;;;8.32;4.85;;;11.40;99.90;;;;;;5040683;28;20025;-83
2022/08/24 04:19:30;;;;;;;8.50;5.63;;;11.40;99.90;;;;;;5030033;28;20032;-83
2022/08/24 04:21:58;;;;;;;8.75;4.70;;;11.40;99.90;;;;;;5048689;28;20051;-83
2022/08/24 04:24:25;;;;;;;7.72;4.63;;;11.40;99.90;;;;;;5039087;28;20508;-83
2022/08/24 04:26:50;;;;;;;8.25;5.40;;;11.30;99.90;;;;;;5046834;28;20056;-83
2022/08/24 04:29:18;;;;;;;10.43;5.32;;;11.30;99.90;;;;;;5035662;28;20026;-83
2022/08/24 04:31:44;;;;;;;6.80;5.18;;;11.30;99.90;;;;;;5022104;28;20055;-83
2022/08/24 04:34:11;;;;;;;7.32;5.65;;;11.30;99.90;;;;;;5035206;28;20031;-83
2022/08/24 04:36:40;;;;;;;5.47;4.55;;;11.20;99.90;;;;;;5035375;28;20029;-83
2022/08/24 04:39:05;;;;;;;7.22;5.38;;;11.20;99.90;;;;;;5036131;28;20033;-84
2022/08/24 04:41:31;;;;;;;8.23;5.50;;;11.30;99.90;;;;;;5055429;28;20025;-83
2022/08/24 04:43:58;;;;;;;5.90;4.65;;;11.20;99.90;;;;;;5055288;28;20025;-84
2022/08/24 04:46:23;;;;;;;5.95;4.70;;;11.20;99.90;;;;;;5018914;28;20033;-84
2022/08/24 04:48:49;;;;;;;6.43;5.18;;;11.20;99.90;;;;;;5015471;28;20041;-83
2022/08/24 04:51:17;;;;;;;8.40;5.32;;;11.20;99.90;;;;;;5041649;28;20284;-84
2022/08/24 04:53:43;;;;;;;9.63;5.22;;;11.20;99.90;;;;;;5039499;28;20131;-83
2022/08/24 04:56:12;;;;;;;9.15;5.55;;;11.20;99.90;;;;;;5048818;28;20319;-84
2022/08/24 04:58:38;;;;;;;8.65;5.00;;;11.30;99.90;;;;;;5042351;28;20136;-84
2022/08/24 05:01:25;;;;;;;6.93;5.32;;;11.30;99.90;;;;;;5041512;28;20029;-84
2022/08/24 05:03:53;;;;;;;9.98;5.10;;;11.30;99.90;;;;;;5020138;28;20029;-83
2022/08/24 05:06:21;;;;;;;8.05;5.45;;;11.40;99.90;;;;;;5041054;28;20064;-84
2022/08/24 05:08:47;;;;;;;9.98;5.13;;;11.50;99.90;;;;;;5047664;28;20018;-84
2022/08/24 05:11:13;;;;;;;5.57;4.95;;;11.40;99.90;;;;;;5034134;28;20032;-79
2022/08/24 05:13:39;;;;;;;7.10;5.10;;;11.50;99.90;;;;;;5034992;28;20030;-83
2022/08/24 05:16:10;;;;;;;8.10;4.80;;;11.60;99.90;;;;;;5034797;28;20359;-83
2022/08/24 05:18:36;;;;;;;7.78;4.78;;;11.60;99.90;;;;;;5037132;28;20033;-83
2022/08/24 05:21:06;;;;;;;6.82;5.32;;;11.70;99.90;;;;;;5029276;28;20041;-80
2022/08/24 05:23:31;;;;;;;5.72;4.95;;;11.70;99.90;;;;;;5030989;28;20037;-84
2022/08/24 05:26:24;;;;;;;7.22;5.00;;;11.80;99.90;;;;;;5030521;28;20032;-84
2022/08/24 05:28:55;;;;;;;6.05;4.60;;;11.90;99.90;;;;;;5027947;28;20451;-84
2022/08/24 05:31:23;;;;;;;10.48;6.72;;;12.00;99.90;;;;;;5030256;28;20033;-83
2022/08/24 05:33:48;;;;;;;13.55;6.55;;;12.10;99.90;;;;;;5030728;28;20037;-84
2022/08/24 05:36:23;;;;;;;8.57;6.20;;;12.10;99.90;;;;;;5031526;28;20044;-84
2022/08/24 05:38:50;;;;;;;8.90;5.53;;;12.20;99.90;;;;;;5016778;28;20113;-84
2022/08/24 05:41:16;;;;;;;8.15;5.72;;;12.30;99.90;;;;;;5036481;28;20037;-84
2022/08/24 05:43:42;;;;;;;8.48;5.32;;;12.40;99.90;;;;;;5034503;28;20490;-84
2022/08/24 05:46:08;;;;;;;7.97;5.55;;;12.40;99.90;;;;;;5049099;28;20017;-84
2022/08/24 05:48:36;;;;;;;7.35;5.85;;;12.50;99.90;;;;;;5045754;28;20445;-84
2022/08/24 05:51:02;;;;;;;6.80;5.82;;;12.60;99.90;;;;;;5036827;28;20029;-84
2022/08/24 05:53:27;;;;;;;10.05;5.90;;;12.70;99.90;;;;;;5048831;28;20387;-82
2022/08/24 05:55:53;;;;;;;9.15;5.65;;;12.80;99.90;;;;;;5032599;28;20044;-80
2022/08/24 05:58:19;;;;;;;11.07;5.78;;;13.00;99.90;;;;;;5033085;28;20064;-80
2022/08/24 06:00:45;;;;;;;9.43;5.18;;;13.10;99.90;;;;;;5032749;28;20025;-80
2022/08/24 06:03:12;;;;;;;8.68;5.35;;;13.20;99.90;;;;;;5040982;28;20029;-83
2022/08/24 06:05:40;;;;;;;8.35;5.57;;;13.40;99.90;;;;;;5039684;28;20025;-83
2022/08/24 06:08:05;;;;;;;8.30;5.63;;;13.50;99.90;;;;;;5032899;28;20099;-83
2022/08/24 06:10:32;;;;;;;11.05;5.78;;;13.60;99.90;;;;;;5015008;28;20473;-83
2022/08/24 06:12:57;;;;;;;13.15;6.88;;;13.80;99.90;;;;;;5029768;28;20037;-86
2022/08/24 06:15:23;;;;;;;9.57;6.10;;;13.90;99.90;;;;;;5033023;28;20029;-86
2022/08/24 06:17:49;;;;;;;15.80;6.35;;;14.00;99.90;;;;;;5029511;28;20029;-86
2022/08/24 06:20:14;;;;;;;18.17;6.80;;;14.20;99.90;;;;;;5026638;28;20027;-87
2022/08/24 06:22:43;;;;;;;13.68;6.70;;;14.30;99.90;;;;;;5027460;28;20026;-81
2022/08/24 06:27:52;;;;;;;22.80;6.13;;;14.50;99.90;;;;;;5032197;28;20087;-81
2022/08/24 06:30:18;;;;;;;33.53;6.38;;;14.70;99.90;;;;;;5029348;28;20026;-80
2022/08/24 06:32:44;;;;;;;15.95;5.43;;;14.80;99.90;;;;;;5030327;28;20093;-81
2022/08/24 06:35:10;;;;;;;14.30;5.40;;;15.00;99.90;;;;;;5020293;28;20022;-86
2022/08/24 06:37:35;;;;;;;13.18;4.95;;;15.10;99.90;;;;;;5031153;28;20072;-87
2022/08/24 06:40:01;;;;;;;7.72;4.97;;;15.20;99.90;;;;;;5028905;28;20025;-80
2022/08/24 06:42:30;;;;;;;8.13;5.45;;;15.40;99.90;;;;;;5038944;28;20078;-87
2022/08/24 06:44:55;;;;;;;9.60;5.22;;;15.50;99.90;;;;;;5043800;28;20033;-86
2022/08/24 06:47:21;;;;;;;10.68;5.10;;;15.60;99.90;;;;;;5033271;28;20026;-87
2022/08/24 06:49:47;;;;;;;5.32;4.30;;;15.70;99.90;;;;;;5047243;28;20017;-86
2022/08/24 06:52:13;;;;;;;9.38;4.82;;;15.80;99.90;;;;;;5033475;28;20032;-87
2022/08/24 06:54:39;;;;;;;9.45;4.35;;;15.90;99.90;;;;;;5033177;28;20025;-87
2022/08/24 06:57:05;;;;;;;6.00;4.53;;;16.00;99.90;;;;;;5033272;28;20040;-87
2022/08/24 06:59:32;;;;;;;11.63;6.15;;;16.10;99.90;;;;;;5033055;28;20112;-87
2022/08/24 07:01:58;;;;;;;8.57;5.38;;;16.20;99.90;;;;;;5033299;28;20123;-87
2022/08/24 07:04:26;;;;;;;12.05;5.60;;;16.30;99.90;;;;;;5028722;28;20033;-87
2022/08/24 07:06:54;;;;;;;12.43;5.65;;;16.40;99.90;;;;;;5027329;28;20469;-81
2022/08/24 07:09:23;;;;;;;13.43;5.72;;;16.50;99.90;;;;;;5031682;28;20029;-81
2022/08/24 07:11:49;;;;;;;15.68;5.35;;;16.60;99.90;;;;;;5027947;28;20029;-81
2022/08/24 07:14:15;;;;;;;8.75;4.10;;;16.70;99.90;;;;;;5031172;28;20037;-81
2022/08/24 07:16:42;;;;;;;8.77;4.47;;;16.80;99.90;;;;;;5029984;28;20032;-81
2022/08/24 07:19:07;;;;;;;17.38;4.82;;;17.00;99.90;;;;;;5029364;28;20023;-81
2022/08/24 07:21:33;;;;;;;9.30;4.50;;;17.10;99.90;;;;;;5032098;28;20365;-83
2022/08/24 07:24:01;;;;;;;7.80;4.60;;;17.20;99.90;;;;;;5032107;28;20040;-84
2022/08/24 07:26:29;;;;;;;6.78;3.78;;;17.30;99.90;;;;;;5032483;28;20017;-84
2022/08/24 07:29:03;;;;;;;12.00;4.10;;;17.40;99.90;;;;;;5032239;28;20393;-84
2022/08/24 07:31:30;;;;;;;8.85;3.90;;;17.50;99.90;;;;;;5032383;28;20029;-84
2022/08/24 07:33:56;;;;;;;13.02;5.00;;;17.60;99.90;;;;;;5031792;28;20041;-84
2022/08/24 07:36:21;;;;;;;10.02;4.72;;;17.70;99.90;;;;;;5018617;28;20083;-84
2022/08/24 07:38:47;;;;;;;12.15;4.18;;;17.80;99.90;;;;;;5032113;28;20051;-84
2022/08/24 07:41:13;;;;;;;10.35;4.45;;;17.90;99.90;;;;;;5032285;28;20045;-84
2022/08/24 07:43:39;;;;;;;9.00;3.75;;;18.00;99.90;;;;;;5042395;28;20818;-84
2022/08/24 07:46:06;;;;;;;8.52;3.90;;;18.20;99.90;;;;;;5032642;28;20064;-84
2022/08/24 07:48:33;;;;;;;5.20;3.50;;;18.20;99.90;;;;;;5031877;28;20033;-84
2022/08/24 07:51:06;;;;;;;8.80;4.03;;;18.30;99.90;;;;;;5033093;28;20104;-83
2022/08/24 07:53:32;;;;;;;8.30;4.50;;;18.40;99.90;;;;;;5034865;28;20025;-84
2022/08/24 07:55:57;;;;;;;11.70;4.38;;;18.50;99.90;;;;;;5041897;28;20056;-84
2022/08/24 07:58:23;;;;;;;7.20;4.47;;;18.60;99.90;;;;;;5035328;28;20709;-84
2022/08/24 08:00:49;;;;;;;8.32;4.50;;;18.70;99.90;;;;;;5043027;28;20028;-84
2022/08/24 08:03:17;;;;;;;8.52;5.15;;;18.80;99.90;;;;;;5024971;28;20032;-84
2022/08/24 08:05:42;;;;;;;9.55;4.10;;;18.80;99.90;;;;;;5037997;28;20040;-84
2022/08/24 08:08:08;;;;;;;9.45;4.53;;;18.90;99.90;;;;;;5039820;28;20026;-84
2022/08/24 08:10:35;;;;;;;8.25;4.72;;;19.00;99.90;;;;;;5035468;28;20096;-84
2022/08/24 08:13:04;;;;;;;12.07;4.10;;;19.10;99.90;;;;;;5042028;28;20033;-84
2022/08/24 08:15:30;;;;;;;7.03;4.47;;;19.20;99.90;;;;;;5032726;28;20052;-84
2022/08/24 08:17:57;;;;;;;8.73;4.03;;;19.40;99.90;;;;;;5035408;28;20072;-84
2022/08/24 08:20:23;;;;;;;6.95;4.00;;;19.40;99.90;;;;;;5035247;28;20028;-84
2022/08/24 08:25:37;;;;;;;6.35;3.75;;;19.50;99.90;;;;;;5034887;28;20138;-84
2022/08/24 08:28:04;;;;;;;10.57;3.85;;;19.60;99.90;;;;;;5034541;28;20370;-84
2022/08/24 08:30:30;;;;;;;5.38;2.83;;;19.70;99.90;;;;;;5035428;28;20030;-84
2022/08/24 08:32:56;;;;;;;6.20;3.50;;;19.80;99.90;;;;;;5035143;28;20091;-84
2022/08/24 08:35:21;;;;;;;6.50;3.50;;;20.00;99.90;;;;;;5034967;28;20029;-84
2022/08/24 08:37:48;;;;;;;6.03;3.05;;;20.10;99.90;;;;;;5035149;28;20025;-84
2022/08/24 08:40:54;;;;;;;6.22;2.78;;;20.20;99.90;;;;;;5035177;28;20042;-83
2022/08/24 08:43:54;;;;;;;6.70;2.67;;;20.30;99.90;;;;;;5024071;28;20396;-84
2022/08/24 08:46:58;;;;;;;4.72;2.50;;;20.50;99.90;;;;;;5032358;28;20013;-81
2022/08/24 08:50:02;;;;;;;5.97;2.40;;;20.50;99.90;;;;;;5032411;28;20424;-81
2022/08/24 08:52:47;;;;;;;4.57;2.53;;;20.70;99.90;;;;;;5032747;28;20543;-81
2022/08/24 08:55:51;;;;;;;6.47;2.80;;;20.80;99.90;;;;;;5021684;28;20385;-81
2022/08/24 08:58:56;;;;;;;5.80;2.47;;;21.00;99.90;;;;;;5005995;28;20040;-87
2022/08/24 09:01:44;;;;;;;4.80;2.30;;;21.10;99.90;;;;;;5035062;28;20691;-83
2022/08/24 09:04:47;;;;;;;6.05;2.67;;;21.20;99.90;;;;;;5023048;28;20033;-83
2022/08/24 09:07:25;;;;;;;4.55;2.50;;;21.20;99.90;;;;;;5031684;28;20045;-81
2022/08/24 09:09:50;;;;;;;6.22;2.90;;;21.40;99.90;;;;;;5033382;28;20025;-81
2022/08/24 09:12:40;;;;;;;11.52;3.25;;;21.50;99.90;;;;;;5015923;28;20018;-81
2022/08/24 09:15:32;;;;;;;6.40;2.78;;;21.70;99.90;;;;;;5033919;28;20048;-81
2022/08/24 09:18:19;;;;;;;7.57;2.70;;;21.90;99.90;;;;;;5021925;28;20491;-81
2022/08/24 09:20:54;;;;;;;4.88;2.60;;;22.20;99.90;;;;;;5033130;28;20026;-82
2022/08/24 09:23:38;;;;;;;;;;;22.30;99.90;;;;;;5033329;28;20056;-81
2022/08/24 09:26:18;;;;;;;8.15;3.30;;;22.40;99.90;;;;;;5032080;28;19912;-80
2022/08/24 09:29:03;;;;;;;5.82;3.00;;;22.70;99.90;;;;;;5032769;28;20057;-81
2022/08/24 09:32:09;;;;;;;5.78;2.75;;;22.90;99.90;;;;;;5031459;28;20386;-80
2022/08/24 09:34:51;;;;;;;7.88;2.50;;;23.10;99.90;;;;;;5030956;28;20048;-80
2022/08/24 09:37:32;;;;;;;7.25;3.13;;;23.20;99.90;;;;;;5035113;28;20044;-81
2022/08/24 09:40:04;;;;;;;6.43;2.70;;;23.40;99.90;;;;;;5032049;28;20029;-85
2022/08/24 09:42:53;;;;;;;6.95;2.80;;;23.60;99.90;;;;;;5032459;28;20022;-82
2022/08/24 09:45:27;;;;;;;8.20;2.47;;;23.70;99.90;;;;;;5030516;28;20457;-82
2022/08/24 09:48:19;;;;;;;6.20;2.50;;;24.00;99.90;;;;;;5030570;28;20090;-82
2022/08/24 09:50:55;;;;;;;9.73;3.15;;;24.20;99.90;;;;;;5014202;28;20034;-81
2022/08/24 09:53:27;;;;;;;3.80;2.25;;;24.40;99.90;;;;;;5030719;28;20099;-81
2022/08/24 09:56:18;;;;;;;9.32;3.03;;;24.50;99.90;;;;;;5029890;28;20049;-81
2022/08/24 09:59:18;;;;;;;5.15;2.58;;;24.70;99.90;;;;;;5031916;28;20033;-81
2022/08/24 10:01:47;;;;;;;4.85;2.75;;;24.70;99.90;;;;;;5032036;28;20037;-81
2022/08/24 10:04:38;;;;;;;4.03;2.55;;;24.70;99.90;;;;;;5031722;28;20022;-81
2022/08/24 10:07:12;;;;;;;7.43;2.60;;;24.80;99.90;;;;;;5024502;28;20057;-81
2022/08/24 10:09:56;;;;;;;5.20;2.60;;;24.90;99.90;;;;;;5034841;28;20090;-85
2022/08/24 10:12:29;;;;;;;2.40;2.17;;;25.00;99.90;;;;;;5027056;28;20362;-84
2022/08/24 10:15:15;;;;;;;4.38;2.50;;;25.00;99.90;;;;;;5025839;28;20029;-85
2022/08/24 10:18:14;;;;;;;6.53;2.88;;;25.20;99.90;;;;;;5024394;28;20110;-81
2022/08/24 10:21:09;;;;;;;4.80;2.63;;;25.30;99.90;;;;;;5034225;28;20174;-82
2022/08/24 10:23:44;;;;;;;;;;;25.30;99.90;;;;;;5036121;28;20064;-81
2022/08/24 10:26:20;;;;;;;7.72;2.15;;;25.50;99.90;;;;;;5029238;28;20051;-82
2022/08/24 10:29:07;;;;;;;4.82;1.95;;;25.50;99.90;;;;;;5022319;28;20033;-81
2022/08/24 10:31:55;;;;;;;4.43;2.00;;;25.70;99.90;;;;;;5031725;28;20087;-81
2022/08/24 10:34:42;;;;;;;4.47;2.33;;;25.80;99.90;;;;;;5031016;28;20382;-81
2022/08/24 10:37:45;;;;;;;5.40;1.83;;;26.00;99.90;;;;;;5030714;28;20033;-82
2022/08/24 10:40:26;;;;;;;6.97;4.47;;;26.10;99.90;;;;;;5034740;28;20053;-82
2022/08/24 10:43:32;;;;;;;6.05;3.10;;;26.20;99.90;;;;;;5039987;28;20094;-81
2022/08/24 10:46:31;;;;;;;3.70;2.45;;;26.10;99.90;;;;;;5033932;28;20124;-81
2022/08/24 10:49:13;;;;;;;6.38;2.13;;;26.10;99.90;;;;;;5031838;28;20029;-86
2022/08/24 10:51:49;;;;;;;4.15;2.10;;;26.20;99.90;;;;;;5048220;28;20096;-87
2022/08/24 10:54:18;;;;;;;4.40;2.58;;;26.40;99.90;;;;;;5040028;28;20014;-87
2022/08/24 10:57:07;;;;;;;2.78;2.30;;;26.30;99.90;;;;;;5018719;28;20091;-87
2022/08/24 10:59:40;;;;;;;5.07;2.20;;;26.40;99.90;;;;;;5026020;28;20061;-88
2022/08/24 11:02:28;;;;;;;5.77;2.77;;;26.50;99.90;;;;;;5033204;28;20018;-87
2022/08/24 11:05:00;;;;;;;2.80;1.98;;;26.60;99.90;;;;;;5033429;28;20018;-87
2022/08/24 11:07:26;;;;;;;5.13;2.40;;;26.70;99.90;;;;;;5033332;28;20032;-87
2022/08/24 11:09:55;;;;;;;6.72;2.05;;;26.80;99.90;;;;;;5014053;28;20033;-81
2022/08/24 11:12:36;;;;;;;2.65;2.10;;;26.90;99.90;;;;;;5030780;28;20018;-82
2022/08/24 11:15:22;;;;;;;3.35;2.58;;;26.90;99.90;;;;;;5028870;28;20075;-82
2022/08/24 11:17:59;;;;;;;5.13;2.40;;;27.00;99.90;;;;;;5030342;28;20384;-81
2022/08/24 11:20:34;;;;;;;4.82;2.50;;;27.30;99.90;;;;;;5036223;28;20029;-81
2022/08/24 11:23:05;;;;;;;4.35;2.10;;;27.60;99.90;;;;;;5031100;28;20566;-82
2022/08/24 11:25:35;;;;;;;4.93;2.50;;;27.40;99.90;;;;;;5033013;28;20151;-81
2022/08/24 11:28:18;;;;;;;2.58;2.10;;;27.40;99.90;;;;;;5037753;28;20029;-81
2022/08/24 11:30:44;;;;;;;3.28;1.98;;;27.30;99.90;;;;;;5039353;28;20456;-81
2022/08/24 11:33:32;;;;;;;4.47;2.50;;;27.50;99.90;;;;;;5056431;28;20094;-82
2022/08/24 11:35:59;;;;;;;2.25;1.95;;;27.80;99.90;;;;;;5042818;28;20445;-82
2022/08/24 11:38:33;;;;;;;8.63;2.53;;;28.10;99.90;;;;;;5042234;28;20060;-82
2022/08/24 11:41:15;;;;;;;6.50;2.15;;;28.20;99.90;;;;;;5046416;28;20414;-81
2022/08/24 11:44:00;;;;;;;7.40;2.13;;;28.50;99.90;;;;;;5045279;28;20414;-81
2022/08/24 11:46:35;;;;;;;4.32;2.10;;;28.70;99.90;;;;;;5043501;28;20032;-82
2022/08/24 11:49:34;;;;;;;5.47;2.08;;;28.80;99.90;;;;;;5048237;28;20033;-81
2022/08/24 11:52:12;;;;;;;2.95;2.00;;;28.70;99.90;;;;;;5038202;28;20044;-88
2022/08/24 11:55:13;;;;;;;3.50;1.90;;;28.30;99.90;;;;;;5059336;28;20029;-87
2022/08/24 11:58:01;;;;;;;3.58;2.10;;;28.30;99.90;;;;;;5019404;28;20037;-86
2022/08/24 12:00:52;;;;;;;5.05;2.33;;;28.50;99.90;;;;;;5033731;28;20022;-85
2022/08/24 12:03:43;;;;;;;3.00;2.15;;;28.60;99.90;;;;;;5049637;28;20013;-85
2022/08/24 12:06:42;;;;;;;4.28;2.20;;;28.80;99.90;;;;;;5037559;28;20116;-86
2022/08/24 12:09:46;;;;;;;5.18;2.70;;;29.10;99.90;;;;;;5037856;28;20026;-86
2022/08/24 12:12:20;;;;;;;5.13;2.20;;;28.90;99.90;;;;;;5037845;28;20029;-78
2022/08/24 12:14:59;;;;;;;4.55;2.10;;;28.60;99.90;;;;;;5039498;28;20044;-77
2022/08/24 12:17:51;;;;;;;4.80;2.13;;;28.40;99.90;;;;;;5039007;28;20045;-77
2022/08/24 12:20:28;;;;;;;4.10;2.40;;;28.60;99.90;;;;;;5039301;28;20029;-78
2022/08/24 12:22:59;;;;;;;5.45;2.25;;;28.90;99.90;;;;;;5039303;28;20022;-78
2022/08/24 12:28:26;;;;;;;5.90;2.05;;;29.20;99.90;;;;;;5039660;28;20129;-77
2022/08/24 12:30:56;;;;;;;3.28;2.38;;;29.80;99.90;;;;;;5039212;28;20060;-78
2022/08/24 12:33:30;;;;;;;3.88;2.15;;;29.70;99.90;;;;;;5039110;28;20021;-77
2022/08/24 12:36:02;;;;;;;4.35;2.03;;;29.90;99.90;;;;;;5039141;28;20075;-78
2022/08/24 12:38:33;;;;;;;5.80;2.17;;;30.10;99.90;;;;;;5035120;28;20531;-76
2022/08/24 12:41:05;;;;;;;3.25;1.83;;;30.10;99.90;;;;;;5029495;28;20070;-76
2022/08/24 12:43:43;;;;;;;4.10;2.20;;;30.10;99.90;;;;;;5028611;28;20492;-71
2022/08/24 12:46:12;;;;;;;4.15;2.00;;;29.30;99.90;;;;;;5031221;28;20095;-71
2022/08/24 12:48:59;;;;;;;3.95;1.90;;;28.70;99.90;;;;;;5031750;28;20049;-78
2022/08/24 12:51:45;;;;;;;5.32;2.35;;;28.40;99.90;;;;;;5026645;28;20616;-82
2022/08/24 12:54:38;;;;;;;4.38;2.20;;;28.40;99.90;;;;;;5027648;28;20053;-81
2022/08/24 12:57:46;;;;;;;3.75;2.03;;;28.20;99.90;;;;;;5027555;28;20033;-76
2022/08/24 13:00:27;;;;;;;5.25;2.05;;;28.30;99.90;;;;;;5029776;28;20106;-76
2022/08/24 13:03:00;;;;;;;3.53;1.90;;;28.50;99.90;;;;;;5033925;28;20480;-77
2022/08/24 13:05:42;;;;;;;3.88;1.95;;;28.20;99.90;;;;;;5034867;28;20029;-78
2022/08/24 13:08:14;;;;;;;3.88;2.30;;;28.10;99.90;;;;;;5024837;28;20029;-82
2022/08/24 13:10:50;;;;;;;2.35;1.58;;;28.10;99.90;;;;;;5028534;28;20057;-82
2022/08/24 13:13:21;;;;;;;4.65;1.90;;;28.30;99.90;;;;;;5029271;28;20061;-81
2022/08/24 13:15:47;;;;;;;3.20;2.03;;;28.40;99.90;;;;;;5032607;28;20784;-72
2022/08/24 13:18:12;;;;;;;6.22;1.83;;;28.20;99.90;;;;;;5030126;28;20025;-82
2022/08/24 13:20:41;;;;;;;2.72;1.90;;;28.00;99.90;;;;;;5029510;28;20385;-76
2022/08/24 13:23:17;;;;;;;5.13;1.75;;;28.10;99.90;;;;;;5032875;28;20056;-81